sensor_id;sensor_type;location;lat;lon;timestamp;P1;durP1;ratioP1;P2;durP2;ratioP2
81386;SDS011;70842;50.744;7.114;2023-06-26T00:00:24;8.75;;;7.43;;
81386;SDS011;70842;50.744;7.114;2023-06-26T00:02:51;15.07;;;13.95;;
81386;SDS011;70842;50.744;7.114;2023-06-26T00:05:17;9.57;;;7.75;;
81386;SDS011;70842;50.744;7.114;2023-06-26T00:07:44;8.32;;;7.50;;
81386;SDS011;70842;50.744;7.114;2023-06-26T00:10:10;8.18;;;7.38;;
81386;SDS011;70842;50.744;7.114;2023-06-26T00:12:37;8.40;;;6.80;;
81386;SDS011;70842;50.744;7.114;2023-06-26T00:15:03;9.73;;;7.70;;
81386;SDS011;70842;50.744;7.114;2023-06-26T00:17:30;8.18;;;7.38;;
81386;SDS011;70842;50.744;7.114;2023-06-26T00:19:56;9.35;;;7.85;;
81386;SDS011;70842;50.744;7.114;2023-06-26T00:22:23;8.30;;;7.50;;
81386;SDS011;70842;50.744;7.114;2023-06-26T00:24:49;8.63;;;7.53;;
81386;SDS011;70842;50.744;7.114;2023-06-26T00:27:16;9.57;;;7.10;;
81386;SDS011;70842;50.744;7.114;2023-06-26T00:29:42;10.75;;;6.82;;
81386;SDS011;70842;50.744;7.114;2023-06-26T00:32:08;7.82;;;6.97;;
81386;SDS011;70842;50.744;7.114;2023-06-26T00:34:35;8.85;;;7.95;;
81386;SDS011;70842;50.744;7.114;2023-06-26T00:37:01;9.02;;;7.28;;
81386;SDS011;70842;50.744;7.114;2023-06-26T00:39:28;7.55;;;6.40;;
81386;SDS011;70842;50.744;7.114;2023-06-26T00:41:54;8.43;;;7.57;;
81386;SDS011;70842;50.744;7.114;2023-06-26T00:44:21;8.85;;;7.95;;
81386;SDS011;70842;50.744;7.114;2023-06-26T00:46:47;9.10;;;7.28;;
81386;SDS011;70842;50.744;7.114;2023-06-26T00:49:14;8.60;;;7.45;;
81386;SDS011;70842;50.744;7.114;2023-06-26T00:51:41;8.80;;;6.95;;
81386;SDS011;70842;50.744;7.114;2023-06-26T00:54:07;7.95;;;7.15;;
81386;SDS011;70842;50.744;7.114;2023-06-26T00:56:34;8.48;;;6.85;;
81386;SDS011;70842;50.744;7.114;2023-06-26T00:59:01;8.43;;;7.07;;
81386;SDS011;70842;50.744;7.114;2023-06-26T01:01:27;9.07;;;7.45;;
81386;SDS011;70842;50.744;7.114;2023-06-26T01:03:54;7.78;;;6.97;;
81386;SDS011;70842;50.744;7.114;2023-06-26T01:06:21;12.65;;;11.55;;
81386;SDS011;70842;50.744;7.114;2023-06-26T01:08:49;9.07;;;7.75;;
81386;SDS011;70842;50.744;7.114;2023-06-26T01:15:03;8.95;;;8.15;;
81386;SDS011;70842;50.744;7.114;2023-06-26T01:17:30;8.38;;;6.85;;
81386;SDS011;70842;50.744;7.114;2023-06-26T01:20:01;11.45;;;10.35;;
81386;SDS011;70842;50.744;7.114;2023-06-26T01:27:50;8.05;;;7.22;;
81386;SDS011;70842;50.744;7.114;2023-06-26T01:30:18;8.25;;;6.93;;
81386;SDS011;70842;50.744;7.114;2023-06-26T01:32:47;7.25;;;6.20;;
81386;SDS011;70842;50.744;7.114;2023-06-26T01:35:14;9.50;;;7.20;;
81386;SDS011;70842;50.744;7.114;2023-06-26T01:37:42;8.30;;;7.50;;
81386;SDS011;70842;50.744;7.114;2023-06-26T01:40:08;9.93;;;7.80;;
81386;SDS011;70842;50.744;7.114;2023-06-26T01:42:35;8.35;;;7.53;;
81386;SDS011;70842;50.744;7.114;2023-06-26T01:45:04;9.77;;;6.80;;
81386;SDS011;70842;50.744;7.114;2023-06-26T01:47:36;8.10;;;6.95;;
81386;SDS011;70842;50.744;7.114;2023-06-26T01:50:09;7.95;;;6.60;;
81386;SDS011;70842;50.744;7.114;2023-06-26T01:52:41;9.23;;;8.32;;
81386;SDS011;70842;50.744;7.114;2023-06-26T01:55:16;9.52;;;6.75;;
81386;SDS011;70842;50.744;7.114;2023-06-26T01:57:47;9.10;;;7.45;;
81386;SDS011;70842;50.744;7.114;2023-06-26T02:00:17;8.27;;;6.95;;
81386;SDS011;70842;50.744;7.114;2023-06-26T02:02:44;7.20;;;6.38;;
81386;SDS011;70842;50.744;7.114;2023-06-26T02:05:11;8.52;;;6.75;;
81386;SDS011;70842;50.744;7.114;2023-06-26T02:07:38;8.20;;;6.93;;
81386;SDS011;70842;50.744;7.114;2023-06-26T02:10:05;9.00;;;8.13;;
81386;SDS011;70842;50.744;7.114;2023-06-26T02:12:32;9.30;;;6.45;;
81386;SDS011;70842;50.744;7.114;2023-06-26T02:14:58;8.43;;;7.60;;
81386;SDS011;70842;50.744;7.114;2023-06-26T02:17:25;9.43;;;8.40;;
81386;SDS011;70842;50.744;7.114;2023-06-26T02:19:51;9.85;;;8.88;;
81386;SDS011;70842;50.744;7.114;2023-06-26T02:22:17;8.10;;;7.25;;
81386;SDS011;70842;50.744;7.114;2023-06-26T02:24:44;8.88;;;6.80;;
81386;SDS011;70842;50.744;7.114;2023-06-26T02:27:11;9.02;;;7.35;;
81386;SDS011;70842;50.744;7.114;2023-06-26T02:29:37;8.20;;;7.40;;
81386;SDS011;70842;50.744;7.114;2023-06-26T02:32:05;8.00;;;7.10;;
81386;SDS011;70842;50.744;7.114;2023-06-26T02:34:32;8.55;;;6.82;;
81386;SDS011;70842;50.744;7.114;2023-06-26T02:36:59;7.75;;;6.15;;
81386;SDS011;70842;50.744;7.114;2023-06-26T02:39:26;8.10;;;6.82;;
81386;SDS011;70842;50.744;7.114;2023-06-26T02:41:53;6.93;;;6.13;;
81386;SDS011;70842;50.744;7.114;2023-06-26T02:44:19;8.68;;;7.15;;
81386;SDS011;70842;50.744;7.114;2023-06-26T02:46:47;8.30;;;7.32;;
81386;SDS011;70842;50.744;7.114;2023-06-26T02:49:13;9.18;;;7.20;;
81386;SDS011;70842;50.744;7.114;2023-06-26T02:51:40;8.40;;;6.75;;
81386;SDS011;70842;50.744;7.114;2023-06-26T02:54:06;10.35;;;6.88;;
81386;SDS011;70842;50.744;7.114;2023-06-26T02:56:33;8.45;;;6.72;;
81386;SDS011;70842;50.744;7.114;2023-06-26T02:59:01;7.70;;;6.78;;
81386;SDS011;70842;50.744;7.114;2023-06-26T03:01:28;7.70;;;6.90;;
81386;SDS011;70842;50.744;7.114;2023-06-26T03:03:55;7.53;;;6.50;;
81386;SDS011;70842;50.744;7.114;2023-06-26T03:06:21;8.43;;;7.63;;
81386;SDS011;70842;50.744;7.114;2023-06-26T03:08:48;8.02;;;7.20;;
81386;SDS011;70842;50.744;7.114;2023-06-26T03:11:14;8.07;;;7.28;;
81386;SDS011;70842;50.744;7.114;2023-06-26T03:13:40;9.68;;;8.45;;
81386;SDS011;70842;50.744;7.114;2023-06-26T03:16:07;9.00;;;7.28;;
81386;SDS011;70842;50.744;7.114;2023-06-26T03:18:33;9.10;;;7.60;;
81386;SDS011;70842;50.744;7.114;2023-06-26T03:21:00;7.85;;;7.05;;
81386;SDS011;70842;50.744;7.114;2023-06-26T03:23:26;7.82;;;6.25;;
81386;SDS011;70842;50.744;7.114;2023-06-26T03:25:53;9.32;;;7.07;;
81386;SDS011;70842;50.744;7.114;2023-06-26T03:28:20;10.15;;;8.07;;
81386;SDS011;70842;50.744;7.114;2023-06-26T03:30:46;7.45;;;6.55;;
81386;SDS011;70842;50.744;7.114;2023-06-26T03:33:13;8.90;;;7.55;;
81386;SDS011;70842;50.744;7.114;2023-06-26T03:35:39;8.88;;;7.65;;
81386;SDS011;70842;50.744;7.114;2023-06-26T03:38:05;8.73;;;6.80;;
81386;SDS011;70842;50.744;7.114;2023-06-26T03:40:32;12.10;;;7.60;;
81386;SDS011;70842;50.744;7.114;2023-06-26T03:42:58;8.93;;;7.53;;
81386;SDS011;70842;50.744;7.114;2023-06-26T03:45:25;9.73;;;7.10;;
81386;SDS011;70842;50.744;7.114;2023-06-26T03:47:51;10.52;;;9.15;;
81386;SDS011;70842;50.744;7.114;2023-06-26T03:50:18;9.00;;;6.80;;
81386;SDS011;70842;50.744;7.114;2023-06-26T03:52:45;8.77;;;7.47;;
81386;SDS011;70842;50.744;7.114;2023-06-26T03:55:12;8.45;;;6.97;;
81386;SDS011;70842;50.744;7.114;2023-06-26T03:57:38;8.75;;;7.28;;
81386;SDS011;70842;50.744;7.114;2023-06-26T04:00:05;9.13;;;7.40;;
81386;SDS011;70842;50.744;7.114;2023-06-26T04:02:34;10.00;;;9.10;;
81386;SDS011;70842;50.744;7.114;2023-06-26T04:05:01;11.18;;;7.63;;
81386;SDS011;70842;50.744;7.114;2023-06-26T04:07:29;8.32;;;7.32;;
81386;SDS011;70842;50.744;7.114;2023-06-26T04:09:57;7.28;;;6.43;;
81386;SDS011;70842;50.744;7.114;2023-06-26T04:12:23;9.40;;;7.47;;
81386;SDS011;70842;50.744;7.114;2023-06-26T04:14:50;8.80;;;7.18;;
81386;SDS011;70842;50.744;7.114;2023-06-26T04:17:16;8.88;;;7.40;;
81386;SDS011;70842;50.744;7.114;2023-06-26T04:19:43;9.50;;;6.75;;
81386;SDS011;70842;50.744;7.114;2023-06-26T04:22:09;9.38;;;7.20;;
81386;SDS011;70842;50.744;7.114;2023-06-26T04:24:36;8.32;;;7.43;;
81386;SDS011;70842;50.744;7.114;2023-06-26T04:27:02;8.85;;;7.30;;
81386;SDS011;70842;50.744;7.114;2023-06-26T04:29:29;9.82;;;8.70;;
81386;SDS011;70842;50.744;7.114;2023-06-26T04:31:55;9.52;;;8.57;;
81386;SDS011;70842;50.744;7.114;2023-06-26T04:34:25;8.07;;;6.90;;
81386;SDS011;70842;50.744;7.114;2023-06-26T04:36:52;8.93;;;8.02;;
81386;SDS011;70842;50.744;7.114;2023-06-26T04:39:18;8.18;;;7.07;;
81386;SDS011;70842;50.744;7.114;2023-06-26T04:41:45;8.77;;;7.90;;
81386;SDS011;70842;50.744;7.114;2023-06-26T04:44:11;9.60;;;8.63;;
81386;SDS011;70842;50.744;7.114;2023-06-26T04:46:38;9.60;;;8.05;;
81386;SDS011;70842;50.744;7.114;2023-06-26T04:49:08;9.68;;;6.95;;
81386;SDS011;70842;50.744;7.114;2023-06-26T04:51:35;9.70;;;7.13;;
81386;SDS011;70842;50.744;7.114;2023-06-26T04:54:07;8.63;;;6.65;;
81386;SDS011;70842;50.744;7.114;2023-06-26T04:56:34;8.32;;;6.63;;
81386;SDS011;70842;50.744;7.114;2023-06-26T04:59:01;9.40;;;8.50;;
81386;SDS011;70842;50.744;7.114;2023-06-26T05:01:28;8.70;;;7.85;;
81386;SDS011;70842;50.744;7.114;2023-06-26T05:03:56;10.43;;;6.68;;
81386;SDS011;70842;50.744;7.114;2023-06-26T05:06:22;7.88;;;7.07;;
81386;SDS011;70842;50.744;7.114;2023-06-26T05:08:49;9.07;;;7.03;;
81386;SDS011;70842;50.744;7.114;2023-06-26T05:11:15;7.32;;;6.28;;
81386;SDS011;70842;50.744;7.114;2023-06-26T05:13:42;9.38;;;8.48;;
81386;SDS011;70842;50.744;7.114;2023-06-26T05:16:08;8.43;;;6.78;;
81386;SDS011;70842;50.744;7.114;2023-06-26T05:18:35;9.00;;;8.10;;
81386;SDS011;70842;50.744;7.114;2023-06-26T05:21:02;9.15;;;7.53;;
81386;SDS011;70842;50.744;7.114;2023-06-26T05:23:33;7.97;;;6.85;;
81386;SDS011;70842;50.744;7.114;2023-06-26T05:26:03;9.40;;;6.85;;
81386;SDS011;70842;50.744;7.114;2023-06-26T05:28:30;8.70;;;7.32;;
81386;SDS011;70842;50.744;7.114;2023-06-26T05:31:02;7.75;;;6.95;;
81386;SDS011;70842;50.744;7.114;2023-06-26T05:33:31;10.23;;;8.25;;
81386;SDS011;70842;50.744;7.114;2023-06-26T05:36:02;8.93;;;7.93;;
81386;SDS011;70842;50.744;7.114;2023-06-26T05:38:30;8.10;;;6.05;;
81386;SDS011;70842;50.744;7.114;2023-06-26T05:40:56;8.10;;;6.13;;
81386;SDS011;70842;50.744;7.114;2023-06-26T05:43:23;9.23;;;7.80;;
81386;SDS011;70842;50.744;7.114;2023-06-26T05:45:54;7.40;;;5.68;;
81386;SDS011;70842;50.744;7.114;2023-06-26T05:48:20;8.27;;;6.28;;
81386;SDS011;70842;50.744;7.114;2023-06-26T05:50:47;6.80;;;5.53;;
81386;SDS011;70842;50.744;7.114;2023-06-26T05:53:13;9.07;;;6.28;;
81386;SDS011;70842;50.744;7.114;2023-06-26T05:55:40;8.70;;;6.13;;
81386;SDS011;70842;50.744;7.114;2023-06-26T05:58:09;9.77;;;6.78;;
81386;SDS011;70842;50.744;7.114;2023-06-26T06:00:38;10.50;;;5.15;;
81386;SDS011;70842;50.744;7.114;2023-06-26T06:03:06;6.93;;;5.32;;
81386;SDS011;70842;50.744;7.114;2023-06-26T06:05:33;6.40;;;4.50;;
81386;SDS011;70842;50.744;7.114;2023-06-26T06:07:59;8.73;;;4.90;;
81386;SDS011;70842;50.744;7.114;2023-06-26T06:10:26;6.53;;;5.10;;
81386;SDS011;70842;50.744;7.114;2023-06-26T06:12:52;8.35;;;5.22;;
81386;SDS011;70842;50.744;7.114;2023-06-26T06:15:21;6.82;;;4.75;;
81386;SDS011;70842;50.744;7.114;2023-06-26T06:17:47;6.28;;;4.93;;
81386;SDS011;70842;50.744;7.114;2023-06-26T06:20:13;5.47;;;4.53;;
81386;SDS011;70842;50.744;7.114;2023-06-26T06:22:40;6.00;;;4.63;;
81386;SDS011;70842;50.744;7.114;2023-06-26T06:25:06;6.80;;;5.45;;
81386;SDS011;70842;50.744;7.114;2023-06-26T06:27:33;7.55;;;4.65;;
81386;SDS011;70842;50.744;7.114;2023-06-26T06:29:59;7.07;;;4.90;;
81386;SDS011;70842;50.744;7.114;2023-06-26T06:32:26;6.30;;;4.40;;
81386;SDS011;70842;50.744;7.114;2023-06-26T06:34:52;7.20;;;4.22;;
81386;SDS011;70842;50.744;7.114;2023-06-26T06:37:19;8.38;;;4.68;;
81386;SDS011;70842;50.744;7.114;2023-06-26T06:39:45;6.07;;;5.13;;
81386;SDS011;70842;50.744;7.114;2023-06-26T06:42:12;7.38;;;4.65;;
81386;SDS011;70842;50.744;7.114;2023-06-26T06:44:38;9.07;;;5.63;;
81386;SDS011;70842;50.744;7.114;2023-06-26T06:47:04;7.25;;;4.60;;
81386;SDS011;70842;50.744;7.114;2023-06-26T06:49:31;6.57;;;4.63;;
81386;SDS011;70842;50.744;7.114;2023-06-26T06:51:57;8.35;;;7.47;;
81386;SDS011;70842;50.744;7.114;2023-06-26T06:54:25;7.45;;;6.03;;
81386;SDS011;70842;50.744;7.114;2023-06-26T06:56:53;6.93;;;4.47;;
81386;SDS011;70842;50.744;7.114;2023-06-26T06:59:19;6.78;;;4.47;;
81386;SDS011;70842;50.744;7.114;2023-06-26T07:01:45;10.20;;;5.18;;
81386;SDS011;70842;50.744;7.114;2023-06-26T07:04:12;6.95;;;4.78;;
81386;SDS011;70842;50.744;7.114;2023-06-26T07:06:38;7.60;;;5.00;;
81386;SDS011;70842;50.744;7.114;2023-06-26T07:09:05;8.48;;;5.22;;
81386;SDS011;70842;50.744;7.114;2023-06-26T07:11:32;8.20;;;4.80;;
81386;SDS011;70842;50.744;7.114;2023-06-26T07:13:59;10.30;;;5.90;;
81386;SDS011;70842;50.744;7.114;2023-06-26T07:16:25;7.45;;;5.32;;
81386;SDS011;70842;50.744;7.114;2023-06-26T07:18:52;9.32;;;5.82;;
81386;SDS011;70842;50.744;7.114;2023-06-26T07:21:18;7.10;;;5.75;;
81386;SDS011;70842;50.744;7.114;2023-06-26T07:23:45;7.97;;;5.07;;
81386;SDS011;70842;50.744;7.114;2023-06-26T07:26:13;9.77;;;5.25;;
81386;SDS011;70842;50.744;7.114;2023-06-26T07:28:40;8.98;;;5.07;;
81386;SDS011;70842;50.744;7.114;2023-06-26T07:31:07;11.20;;;5.35;;
81386;SDS011;70842;50.744;7.114;2023-06-26T07:33:34;5.90;;;4.07;;
81386;SDS011;70842;50.744;7.114;2023-06-26T07:36:00;10.35;;;5.25;;
81386;SDS011;70842;50.744;7.114;2023-06-26T07:38:27;7.53;;;4.32;;
81386;SDS011;70842;50.744;7.114;2023-06-26T07:40:53;7.53;;;4.63;;
81386;SDS011;70842;50.744;7.114;2023-06-26T07:43:19;9.90;;;4.85;;
81386;SDS011;70842;50.744;7.114;2023-06-26T07:45:46;6.43;;;4.68;;
81386;SDS011;70842;50.744;7.114;2023-06-26T07:48:12;6.60;;;5.25;;
81386;SDS011;70842;50.744;7.114;2023-06-26T07:50:39;8.80;;;4.80;;
81386;SDS011;70842;50.744;7.114;2023-06-26T07:53:05;8.18;;;4.85;;
81386;SDS011;70842;50.744;7.114;2023-06-26T07:55:32;6.95;;;6.25;;
81386;SDS011;70842;50.744;7.114;2023-06-26T07:57:58;8.90;;;5.78;;
81386;SDS011;70842;50.744;7.114;2023-06-26T08:00:25;9.68;;;5.38;;
81386;SDS011;70842;50.744;7.114;2023-06-26T08:02:52;9.32;;;6.53;;
81386;SDS011;70842;50.744;7.114;2023-06-26T08:05:19;12.70;;;7.30;;
81386;SDS011;70842;50.744;7.114;2023-06-26T08:07:46;11.80;;;6.38;;
81386;SDS011;70842;50.744;7.114;2023-06-26T08:10:12;8.13;;;5.68;;
81386;SDS011;70842;50.744;7.114;2023-06-26T08:12:39;9.07;;;6.15;;
81386;SDS011;70842;50.744;7.114;2023-06-26T08:15:06;10.00;;;5.68;;
81386;SDS011;70842;50.744;7.114;2023-06-26T08:17:34;8.95;;;6.30;;
81386;SDS011;70842;50.744;7.114;2023-06-26T08:20:02;11.98;;;8.93;;
81386;SDS011;70842;50.744;7.114;2023-06-26T08:22:28;8.35;;;5.72;;
81386;SDS011;70842;50.744;7.114;2023-06-26T08:24:55;12.13;;;5.78;;
81386;SDS011;70842;50.744;7.114;2023-06-26T08:27:21;8.70;;;7.00;;
81386;SDS011;70842;50.744;7.114;2023-06-26T08:29:48;9.15;;;6.72;;
81386;SDS011;70842;50.744;7.114;2023-06-26T08:32:14;9.63;;;6.90;;
81386;SDS011;70842;50.744;7.114;2023-06-26T08:34:41;7.53;;;6.05;;
81386;SDS011;70842;50.744;7.114;2023-06-26T08:37:07;7.78;;;5.50;;
81386;SDS011;70842;50.744;7.114;2023-06-26T08:39:35;7.22;;;5.78;;
81386;SDS011;70842;50.744;7.114;2023-06-26T08:42:01;9.02;;;6.45;;
81386;SDS011;70842;50.744;7.114;2023-06-26T08:44:28;8.65;;;6.75;;
81386;SDS011;70842;50.744;7.114;2023-06-26T08:46:54;8.35;;;6.13;;
81386;SDS011;70842;50.744;7.114;2023-06-26T08:49:24;7.28;;;6.47;;
81386;SDS011;70842;50.744;7.114;2023-06-26T08:51:56;8.43;;;6.43;;
81386;SDS011;70842;50.744;7.114;2023-06-26T08:54:30;10.43;;;6.22;;
81386;SDS011;70842;50.744;7.114;2023-06-26T08:57:00;8.95;;;5.43;;
81386;SDS011;70842;50.744;7.114;2023-06-26T08:59:28;11.27;;;7.25;;
81386;SDS011;70842;50.744;7.114;2023-06-26T09:01:55;8.52;;;6.63;;
81386;SDS011;70842;50.744;7.114;2023-06-26T09:04:21;10.30;;;4.88;;
81386;SDS011;70842;50.744;7.114;2023-06-26T09:06:48;7.80;;;4.93;;
81386;SDS011;70842;50.744;7.114;2023-06-26T09:09:14;9.13;;;5.53;;
81386;SDS011;70842;50.744;7.114;2023-06-26T09:11:41;7.00;;;4.55;;
81386;SDS011;70842;50.744;7.114;2023-06-26T09:14:07;7.72;;;5.18;;
81386;SDS011;70842;50.744;7.114;2023-06-26T09:16:39;8.68;;;4.78;;
81386;SDS011;70842;50.744;7.114;2023-06-26T09:19:10;8.02;;;4.68;;
81386;SDS011;70842;50.744;7.114;2023-06-26T09:21:39;7.93;;;4.32;;
81386;SDS011;70842;50.744;7.114;2023-06-26T09:24:07;6.53;;;4.82;;
81386;SDS011;70842;50.744;7.114;2023-06-26T09:26:38;6.07;;;4.90;;
81386;SDS011;70842;50.744;7.114;2023-06-26T09:29:06;7.82;;;4.68;;
81386;SDS011;70842;50.744;7.114;2023-06-26T09:31:33;8.90;;;4.38;;
81386;SDS011;70842;50.744;7.114;2023-06-26T09:34:07;10.52;;;4.45;;
81386;SDS011;70842;50.744;7.114;2023-06-26T09:36:34;7.25;;;4.65;;
81386;SDS011;70842;50.744;7.114;2023-06-26T09:39:06;7.57;;;5.10;;
81386;SDS011;70842;50.744;7.114;2023-06-26T09:41:37;6.22;;;4.72;;
81386;SDS011;70842;50.744;7.114;2023-06-26T09:44:05;9.30;;;4.47;;
81386;SDS011;70842;50.744;7.114;2023-06-26T09:46:32;8.15;;;4.72;;
81386;SDS011;70842;50.744;7.114;2023-06-26T09:49:00;6.55;;;4.63;;
81386;SDS011;70842;50.744;7.114;2023-06-26T09:51:35;7.30;;;5.47;;
81386;SDS011;70842;50.744;7.114;2023-06-26T09:54:02;6.43;;;3.63;;
81386;SDS011;70842;50.744;7.114;2023-06-26T09:56:31;10.60;;;4.15;;
81386;SDS011;70842;50.744;7.114;2023-06-26T09:59:00;8.15;;;4.32;;
81386;SDS011;70842;50.744;7.114;2023-06-26T10:01:27;5.72;;;3.30;;
81386;SDS011;70842;50.744;7.114;2023-06-26T10:03:55;7.80;;;3.80;;
81386;SDS011;70842;50.744;7.114;2023-06-26T10:06:27;5.15;;;3.55;;
81386;SDS011;70842;50.744;7.114;2023-06-26T10:09:00;6.97;;;4.45;;
81386;SDS011;70842;50.744;7.114;2023-06-26T10:11:30;6.55;;;3.45;;
81386;SDS011;70842;50.744;7.114;2023-06-26T10:14:03;6.78;;;3.53;;
81386;SDS011;70842;50.744;7.114;2023-06-26T10:16:43;6.07;;;3.88;;
81386;SDS011;70842;50.744;7.114;2023-06-26T10:19:11;5.22;;;4.18;;
81386;SDS011;70842;50.744;7.114;2023-06-26T10:21:39;5.30;;;3.80;;
81386;SDS011;70842;50.744;7.114;2023-06-26T10:24:06;6.45;;;5.13;;
81386;SDS011;70842;50.744;7.114;2023-06-26T10:26:37;4.38;;;3.78;;
81386;SDS011;70842;50.744;7.114;2023-06-26T10:29:07;7.53;;;3.30;;
81386;SDS011;70842;50.744;7.114;2023-06-26T10:31:34;5.63;;;3.38;;
81386;SDS011;70842;50.744;7.114;2023-06-26T10:34:02;6.25;;;3.70;;
81386;SDS011;70842;50.744;7.114;2023-06-26T10:36:30;5.40;;;3.95;;
81386;SDS011;70842;50.744;7.114;2023-06-26T10:38:58;6.00;;;2.80;;
81386;SDS011;70842;50.744;7.114;2023-06-26T10:41:37;7.40;;;3.95;;
81386;SDS011;70842;50.744;7.114;2023-06-26T10:44:28;5.13;;;3.33;;
81386;SDS011;70842;50.744;7.114;2023-06-26T10:47:07;6.97;;;2.97;;
81386;SDS011;70842;50.744;7.114;2023-06-26T10:49:34;4.78;;;2.80;;
81386;SDS011;70842;50.744;7.114;2023-06-26T10:52:02;5.18;;;3.08;;
81386;SDS011;70842;50.744;7.114;2023-06-26T10:54:30;6.65;;;3.70;;
81386;SDS011;70842;50.744;7.114;2023-06-26T10:56:58;5.72;;;3.20;;
81386;SDS011;70842;50.744;7.114;2023-06-26T10:59:25;5.82;;;3.22;;
81386;SDS011;70842;50.744;7.114;2023-06-26T11:01:59;6.55;;;3.63;;
81386;SDS011;70842;50.744;7.114;2023-06-26T11:04:43;6.40;;;3.22;;
81386;SDS011;70842;50.744;7.114;2023-06-26T11:07:20;6.38;;;3.10;;
81386;SDS011;70842;50.744;7.114;2023-06-26T11:09:55;5.85;;;3.47;;
81386;SDS011;70842;50.744;7.114;2023-06-26T11:12:33;7.13;;;3.45;;
81386;SDS011;70842;50.744;7.114;2023-06-26T11:15:11;6.68;;;3.65;;
81386;SDS011;70842;50.744;7.114;2023-06-26T11:17:40;6.00;;;3.80;;
81386;SDS011;70842;50.744;7.114;2023-06-26T11:20:08;7.97;;;4.18;;
81386;SDS011;70842;50.744;7.114;2023-06-26T11:22:37;7.35;;;3.25;;
81386;SDS011;70842;50.744;7.114;2023-06-26T11:25:05;4.78;;;2.70;;
81386;SDS011;70842;50.744;7.114;2023-06-26T11:30:04;6.28;;;4.15;;
81386;SDS011;70842;50.744;7.114;2023-06-26T11:32:31;7.38;;;3.28;;
81386;SDS011;70842;50.744;7.114;2023-06-26T11:35:01;7.55;;;3.15;;
81386;SDS011;70842;50.744;7.114;2023-06-26T11:37:27;7.10;;;2.88;;
81386;SDS011;70842;50.744;7.114;2023-06-26T11:39:54;7.28;;;3.15;;
81386;SDS011;70842;50.744;7.114;2023-06-26T11:42:20;6.85;;;3.03;;
81386;SDS011;70842;50.744;7.114;2023-06-26T11:44:47;5.35;;;3.33;;
81386;SDS011;70842;50.744;7.114;2023-06-26T11:47:17;5.53;;;2.60;;
81386;SDS011;70842;50.744;7.114;2023-06-26T11:49:45;3.60;;;2.90;;
81386;SDS011;70842;50.744;7.114;2023-06-26T11:52:15;6.28;;;3.17;;
81386;SDS011;70842;50.744;7.114;2023-06-26T11:54:42;5.47;;;2.78;;
81386;SDS011;70842;50.744;7.114;2023-06-26T11:57:12;6.28;;;4.95;;
81386;SDS011;70842;50.744;7.114;2023-06-26T11:59:40;6.43;;;3.53;;
81386;SDS011;70842;50.744;7.114;2023-06-26T12:02:07;4.85;;;2.67;;
81386;SDS011;70842;50.744;7.114;2023-06-26T12:04:36;6.47;;;4.80;;
81386;SDS011;70842;50.744;7.114;2023-06-26T12:07:04;9.20;;;3.25;;
81386;SDS011;70842;50.744;7.114;2023-06-26T12:09:37;5.00;;;2.63;;
81386;SDS011;70842;50.744;7.114;2023-06-26T12:12:05;5.43;;;3.25;;
81386;SDS011;70842;50.744;7.114;2023-06-26T12:14:32;4.28;;;2.75;;
81386;SDS011;70842;50.744;7.114;2023-06-26T12:17:08;4.28;;;2.72;;
81386;SDS011;70842;50.744;7.114;2023-06-26T12:19:39;5.18;;;3.00;;
81386;SDS011;70842;50.744;7.114;2023-06-26T12:22:09;4.35;;;2.83;;
81386;SDS011;70842;50.744;7.114;2023-06-26T12:24:37;5.82;;;2.40;;
81386;SDS011;70842;50.744;7.114;2023-06-26T12:27:23;4.40;;;2.75;;
81386;SDS011;70842;50.744;7.114;2023-06-26T12:29:53;5.40;;;2.63;;
81386;SDS011;70842;50.744;7.114;2023-06-26T12:32:23;7.75;;;3.05;;
81386;SDS011;70842;50.744;7.114;2023-06-26T12:34:52;5.55;;;3.38;;
81386;SDS011;70842;50.744;7.114;2023-06-26T12:37:19;5.05;;;3.15;;
81386;SDS011;70842;50.744;7.114;2023-06-26T12:39:52;5.03;;;3.15;;
81386;SDS011;70842;50.744;7.114;2023-06-26T12:42:23;4.28;;;2.70;;
81386;SDS011;70842;50.744;7.114;2023-06-26T12:44:51;4.68;;;2.70;;
81386;SDS011;70842;50.744;7.114;2023-06-26T12:47:23;5.30;;;3.08;;
81386;SDS011;70842;50.744;7.114;2023-06-26T12:49:51;5.22;;;2.97;;
81386;SDS011;70842;50.744;7.114;2023-06-26T12:52:18;6.03;;;3.00;;
81386;SDS011;70842;50.744;7.114;2023-06-26T12:54:46;4.85;;;3.25;;
81386;SDS011;70842;50.744;7.114;2023-06-26T12:57:17;5.38;;;2.97;;
81386;SDS011;70842;50.744;7.114;2023-06-26T12:59:43;4.93;;;2.50;;
81386;SDS011;70842;50.744;7.114;2023-06-26T13:02:10;5.95;;;3.40;;
81386;SDS011;70842;50.744;7.114;2023-06-26T13:04:37;6.55;;;3.10;;
81386;SDS011;70842;50.744;7.114;2023-06-26T13:07:07;6.03;;;2.55;;
81386;SDS011;70842;50.744;7.114;2023-06-26T13:09:34;4.25;;;2.75;;
81386;SDS011;70842;50.744;7.114;2023-06-26T13:12:01;5.32;;;2.83;;
81386;SDS011;70842;50.744;7.114;2023-06-26T13:14:31;4.90;;;3.55;;
81386;SDS011;70842;50.744;7.114;2023-06-26T13:16:58;5.03;;;2.08;;
81386;SDS011;70842;50.744;7.114;2023-06-26T13:19:24;4.90;;;3.03;;
81386;SDS011;70842;50.744;7.114;2023-06-26T13:21:51;4.35;;;3.15;;
81386;SDS011;70842;50.744;7.114;2023-06-26T13:24:17;5.43;;;3.00;;
81386;SDS011;70842;50.744;7.114;2023-06-26T13:26:43;5.07;;;3.00;;
81386;SDS011;70842;50.744;7.114;2023-06-26T13:29:10;6.32;;;3.20;;
81386;SDS011;70842;50.744;7.114;2023-06-26T13:31:37;4.93;;;3.30;;
81386;SDS011;70842;50.744;7.114;2023-06-26T13:34:04;5.38;;;2.45;;
81386;SDS011;70842;50.744;7.114;2023-06-26T13:36:31;5.22;;;2.40;;
81386;SDS011;70842;50.744;7.114;2023-06-26T13:39:00;5.68;;;3.20;;
81386;SDS011;70842;50.744;7.114;2023-06-26T13:41:27;3.83;;;2.88;;
81386;SDS011;70842;50.744;7.114;2023-06-26T13:43:54;6.15;;;3.05;;
81386;SDS011;70842;50.744;7.114;2023-06-26T13:46:33;4.20;;;2.70;;
81386;SDS011;70842;50.744;7.114;2023-06-26T13:48:59;4.20;;;2.90;;
81386;SDS011;70842;50.744;7.114;2023-06-26T13:51:26;5.80;;;2.75;;
81386;SDS011;70842;50.744;7.114;2023-06-26T13:53:52;4.13;;;3.17;;
81386;SDS011;70842;50.744;7.114;2023-06-26T13:56:18;3.63;;;3.17;;
81386;SDS011;70842;50.744;7.114;2023-06-26T13:58:45;8.40;;;2.50;;
81386;SDS011;70842;50.744;7.114;2023-06-26T14:01:11;3.28;;;2.20;;
81386;SDS011;70842;50.744;7.114;2023-06-26T14:03:38;4.20;;;2.28;;
81386;SDS011;70842;50.744;7.114;2023-06-26T14:06:05;4.55;;;2.17;;
81386;SDS011;70842;50.744;7.114;2023-06-26T14:08:31;4.65;;;2.47;;
81386;SDS011;70842;50.744;7.114;2023-06-26T14:10:58;4.85;;;4.03;;
81386;SDS011;70842;50.744;7.114;2023-06-26T14:13:25;5.07;;;3.50;;
81386;SDS011;70842;50.744;7.114;2023-06-26T14:15:51;3.72;;;2.80;;
81386;SDS011;70842;50.744;7.114;2023-06-26T14:18:19;5.68;;;2.42;;
81386;SDS011;70842;50.744;7.114;2023-06-26T14:20:47;8.02;;;2.55;;
81386;SDS011;70842;50.744;7.114;2023-06-26T14:23:13;3.92;;;2.70;;
81386;SDS011;70842;50.744;7.114;2023-06-26T14:25:40;4.40;;;4.00;;
81386;SDS011;70842;50.744;7.114;2023-06-26T14:28:06;7.78;;;3.20;;
81386;SDS011;70842;50.744;7.114;2023-06-26T14:30:33;3.80;;;2.25;;
81386;SDS011;70842;50.744;7.114;2023-06-26T14:32:59;5.05;;;2.42;;
81386;SDS011;70842;50.744;7.114;2023-06-26T14:35:26;4.50;;;2.40;;
81386;SDS011;70842;50.744;7.114;2023-06-26T14:37:52;4.50;;;2.22;;
81386;SDS011;70842;50.744;7.114;2023-06-26T14:40:19;4.38;;;2.92;;
81386;SDS011;70842;50.744;7.114;2023-06-26T14:42:46;5.15;;;2.60;;
81386;SDS011;70842;50.744;7.114;2023-06-26T14:45:13;3.47;;;2.17;;
81386;SDS011;70842;50.744;7.114;2023-06-26T14:47:40;5.28;;;3.05;;
81386;SDS011;70842;50.744;7.114;2023-06-26T14:50:07;3.95;;;2.65;;
81386;SDS011;70842;50.744;7.114;2023-06-26T14:52:35;3.80;;;2.92;;
81386;SDS011;70842;50.744;7.114;2023-06-26T14:55:01;4.15;;;3.58;;
81386;SDS011;70842;50.744;7.114;2023-06-26T14:57:32;5.07;;;3.75;;
81386;SDS011;70842;50.744;7.114;2023-06-26T14:59:58;4.35;;;2.05;;